Time;durP1;ratioP1;P1;durP2;ratioP2;P2;SDS_P1;SDS_P2;PMS_P1;PMS_P2;Temp;Humidity;BMP_temperature;BMP_pressure;BME280_temperature;BME280_humidity;BME280_pressure;Samples;Min_cycle;Max_cycle;Signal;HPM_P1;HPM_P2
2021/01/15 00:02:02;;;;;;;8.63;5.30;;;;;;;;;;5035905;28;20740;-65
2021/01/15 00:04:28;;;;;;;5.63;4.60;;;;;;;;;;5022534;28;20219;-65
2021/01/15 00:07:02;;;;;;;8.20;5.40;;;;;;;;;;5016441;28;20936;-64
2021/01/15 00:09:27;;;;;;;4.60;4.00;;;;;;;;;;5016311;28;20206;-65
2021/01/15 00:11:53;;;;;;;6.10;4.50;;;;;;;;;;5016528;28;20477;-64
2021/01/15 00:14:18;;;;;;;7.60;4.60;;;;;;;;;;5015975;28;20293;-64
2021/01/15 00:16:43;;;;;;;6.57;4.83;;;;;;;;;;5016660;28;20689;-64
2021/01/15 00:19:09;;;;;;;7.47;4.23;;;;;;;;;;5016035;28;20277;-65
2021/01/15 00:21:36;;;;;;;5.33;4.10;;;;;;;;;;5016225;28;20298;-65
2021/01/15 00:24:04;;;;;;;6.00;4.83;;;;;;;;;;5016205;28;20210;-65
2021/01/15 00:26:31;;;;;;;8.83;5.27;;;;;;;;;;5020275;28;20478;-65
2021/01/15 00:28:57;;;;;;;6.20;4.50;;;;;;;;;;5020472;28;20458;-64
2021/01/15 00:31:33;;;;;;;8.43;5.13;;;;;;;;;;5020167;28;20461;-64
2021/01/15 00:33:59;;;;;;;6.30;4.87;;;;;;;;;;5020115;28;20524;-64
2021/01/15 00:36:25;;;;;;;6.50;5.40;;;;;;;;;;5019989;28;20495;-65
2021/01/15 00:38:50;;;;;;;7.57;4.93;;;;;;;;;;5020214;28;20250;-65
2021/01/15 00:41:15;;;;;;;7.30;5.13;;;;;;;;;;5019913;28;20516;-65
2021/01/15 00:43:40;;;;;;;5.90;5.10;;;;;;;;;;5020367;28;20272;-64
2021/01/15 00:46:07;;;;;;;5.20;4.70;;;;;;;;;;5019915;28;20239;-65
2021/01/15 00:48:33;;;;;;;5.87;5.10;;;;;;;;;;5020273;28;20213;-65
2021/01/15 00:51:06;;;;;;;7.00;4.90;;;;;;;;;;5020374;28;20472;-65
2021/01/15 00:53:31;;;;;;;5.53;4.10;;;;;;;;;;5019585;28;21481;-65
2021/01/15 00:55:59;;;;;;;5.13;4.27;;;;;;;;;;5019548;28;20462;-65
2021/01/15 00:58:25;;;;;;;5.27;4.10;;;;;;;;;;5019631;28;20222;-66
2021/01/15 01:00:53;;;;;;;7.97;4.90;;;;;;;;;;5019399;28;20462;-65
2021/01/15 01:03:18;;;;;;;4.97;4.47;;;;;;;;;;5019829;28;20725;-64
2021/01/15 01:05:44;;;;;;;5.03;4.53;;;;;;;;;;5019626;28;20528;-64
2021/01/15 01:08:09;;;;;;;6.43;5.67;;;;;;;;;;5019245;28;20528;-66
2021/01/15 01:10:34;;;;;;;6.53;4.83;;;;;;;;;;5019567;28;20265;-65
2021/01/15 01:12:59;;;;;;;5.10;4.60;;;;;;;;;;5019522;28;20524;-65
2021/01/15 01:15:25;;;;;;;5.60;4.30;;;;;;;;;;5018912;28;20261;-65
2021/01/15 01:17:52;;;;;;;7.87;5.43;;;;;;;;;;5019736;28;20207;-64
2021/01/15 01:20:17;;;;;;;6.60;5.33;;;;;;;;;;5018823;28;20222;-64
2021/01/15 01:22:49;;;;;;;6.83;5.00;;;;;;;;;;5051297;28;20462;-64
2021/01/15 01:25:14;;;;;;;5.70;5.20;;;;;;;;;;5019105;28;20699;-64
2021/01/15 01:27:39;;;;;;;6.20;4.67;;;;;;;;;;5019639;28;20458;-64
2021/01/15 01:30:05;;;;;;;7.57;6.10;;;;;;;;;;5019126;28;20226;-64
2021/01/15 01:32:30;;;;;;;4.70;4.13;;;;;;;;;;5018694;28;20221;-64
2021/01/15 01:34:56;;;;;;;5.67;4.70;;;;;;;;;;5019265;28;20274;-65
2021/01/15 01:37:21;;;;;;;5.20;4.33;;;;;;;;;;5017717;28;20274;-65
2021/01/15 01:39:46;;;;;;;5.63;4.77;;;;;;;;;;5018283;28;20293;-65
2021/01/15 01:42:11;;;;;;;6.80;4.73;;;;;;;;;;5017666;28;20218;-64
2021/01/15 01:44:37;;;;;;;6.37;4.63;;;;;;;;;;5018615;28;20226;-64
2021/01/15 01:47:03;;;;;;;7.33;5.40;;;;;;;;;;5018622;28;20289;-64
2021/01/15 01:49:29;;;;;;;6.57;4.53;;;;;;;;;;5050400;28;20210;-64
2021/01/15 01:51:55;;;;;;;8.30;5.70;;;;;;;;;;5018653;28;20526;-64
2021/01/15 01:54:20;;;;;;;6.37;5.70;;;;;;;;;;5017449;28;20241;-64
2021/01/15 01:56:46;;;;;;;7.10;4.80;;;;;;;;;;5050997;28;20453;-64
2021/01/15 01:59:14;;;;;;;5.47;4.97;;;;;;;;;;5018086;28;20210;-65
2021/01/15 02:01:40;;;;;;;5.90;4.83;;;;;;;;;;5018057;28;20218;-65
2021/01/15 02:04:05;;;;;;;6.70;5.07;;;;;;;;;;5019079;28;20469;-65
2021/01/15 02:06:35;;;;;;;8.27;5.60;;;;;;;;;;5018530;28;20588;-64
2021/01/15 02:09:05;;;;;;;6.50;4.87;;;;;;;;;;5018626;28;20218;-64
2021/01/15 02:11:56;;;;;;;5.83;5.00;;;;;;;;;;5018037;28;20472;-64
2021/01/15 02:14:30;;;;;;;5.20;4.53;;;;;;;;;;5017674;28;20465;-64
2021/01/15 02:16:56;;;;;;;5.13;4.63;;;;;;;;;;5018515;28;20472;-64
2021/01/15 02:19:36;;;;;;;5.83;5.27;;;;;;;;;;5016664;28;20463;-64
2021/01/15 02:22:30;;;;;;;4.87;4.27;;;;;;;;;;5018231;28;20497;-64
2021/01/15 02:24:58;;;;;;;8.57;5.87;;;;;;;;;;5017027;28;20466;-65
2021/01/15 02:27:44;;;;;;;6.43;5.03;;;;;;;;;;5018120;28;20514;-64
2021/01/15 02:30:44;;;;;;;6.30;4.77;;;;;;;;;;5017600;28;20937;-64
2021/01/15 02:33:18;;;;;;;7.00;5.83;;;;;;;;;;5013637;28;20492;-64
2021/01/15 02:36:05;;;;;;;8.17;6.43;;;;;;;;;;5018127;28;20460;-64
2021/01/15 02:38:39;;;;;;;6.87;4.60;;;;;;;;;;5017851;28;20973;-64
2021/01/15 02:41:04;;;;;;;8.70;5.20;;;;;;;;;;5017402;28;20467;-64
2021/01/15 02:43:31;;;;;;;6.57;5.85;;;;;;;;;;5018274;28;20516;-64
2021/01/15 02:45:58;;;;;;;6.33;5.57;;;;;;;;;;5000324;28;20214;-64
2021/01/15 02:48:26;;;;;;;8.87;5.60;;;;;;;;;;5050215;28;20457;-64
2021/01/15 02:50:51;;;;;;;6.77;5.57;;;;;;;;;;5049182;28;20454;-64
2021/01/15 02:53:16;;;;;;;6.67;5.50;;;;;;;;;;5017708;28;20468;-64
2021/01/15 02:55:44;;;;;;;7.53;5.23;;;;;;;;;;5017561;28;20227;-64
2021/01/15 02:58:12;;;;;;;5.77;5.20;;;;;;;;;;5017867;28;20216;-64
2021/01/15 03:00:37;;;;;;;6.40;5.43;;;;;;;;;;5017653;28;20517;-65
2021/01/15 03:03:24;;;;;;;7.90;6.03;;;;;;;;;;5017692;28;20462;-64
2021/01/15 03:06:09;;;;;;;6.93;5.53;;;;;;;;;;5049897;28;20699;-64
2021/01/15 03:08:35;;;;;;;6.63;5.33;;;;;;;;;;5017040;28;20454;-64
2021/01/15 03:11:01;;;;;;;6.87;5.30;;;;;;;;;;5017569;28;20468;-64
2021/01/15 03:13:28;;;;;;;5.27;4.40;;;;;;;;;;5016865;28;20233;-64
2021/01/15 03:15:56;;;;;;;7.27;5.50;;;;;;;;;;5049639;28;20477;-64
2021/01/15 03:18:21;;;;;;;9.50;5.80;;;;;;;;;;5016811;28;20465;-64
2021/01/15 03:20:46;;;;;;;6.83;5.87;;;;;;;;;;5017289;28;20461;-64
2021/01/15 03:23:12;;;;;;;8.30;6.77;;;;;;;;;;5017434;28;20228;-64
2021/01/15 03:25:37;;;;;;;5.63;5.13;;;;;;;;;;5017290;28;20215;-64
2021/01/15 03:28:03;;;;;;;11.57;10.37;;;;;;;;;;5016318;28;20221;-72
2021/01/15 03:30:30;;;;;;;6.07;5.20;;;;;;;;;;5047516;28;20257;-65
2021/01/15 03:33:02;;;;;;;8.93;6.17;;;;;;;;;;5006775;28;20225;-64
2021/01/15 03:35:29;;;;;;;6.13;5.53;;;;;;;;;;5015494;28;20934;-64
2021/01/15 03:38:05;;;;;;;6.57;5.87;;;;;;;;;;5014601;28;20450;-65
2021/01/15 03:40:32;;;;;;;6.97;5.60;;;;;;;;;;5014787;28;20841;-65
2021/01/15 03:42:58;;;;;;;6.07;5.00;;;;;;;;;;5014893;28;20461;-64
2021/01/15 03:45:24;;;;;;;7.23;5.53;;;;;;;;;;5014372;28;20463;-64
2021/01/15 03:47:49;;;;;;;5.90;5.30;;;;;;;;;;5014566;28;20798;-64
2021/01/15 03:50:15;;;;;;;5.70;4.80;;;;;;;;;;5015217;28;20477;-64
2021/01/15 03:52:40;;;;;;;6.77;5.63;;;;;;;;;;5014790;28;20276;-64
2021/01/15 03:55:06;;;;;;;6.53;5.10;;;;;;;;;;5014818;28;20654;-64
2021/01/15 03:57:31;;;;;;;7.47;6.40;;;;;;;;;;5014360;28;20223;-65
2021/01/15 03:59:57;;;;;;;5.53;4.93;;;;;;;;;;5014931;28;20712;-65
2021/01/15 04:02:22;;;;;;;7.87;6.17;;;;;;;;;;5014535;28;20317;-67
2021/01/15 04:04:50;;;;;;;8.37;5.57;;;;;;;;;;5013523;28;20706;-66
2021/01/15 04:07:16;;;;;;;7.43;6.07;;;;;;;;;;5015676;28;20222;-66
2021/01/15 04:09:42;;;;;;;7.67;6.37;;;;;;;;;;5014902;28;20862;-65
2021/01/15 04:12:08;;;;;;;8.50;5.97;;;;;;;;;;5014774;28;20541;-65
2021/01/15 04:14:34;;;;;;;6.87;5.53;;;;;;;;;;5014642;28;20471;-66
2021/01/15 04:16:59;;;;;;;5.70;4.73;;;;;;;;;;5014000;28;20561;-66
2021/01/15 04:19:24;;;;;;;5.80;5.20;;;;;;;;;;5014025;28;20222;-65
2021/01/15 04:21:55;;;;;;;6.23;5.63;;;;;;;;;;5013601;28;20691;-66
2021/01/15 04:24:21;;;;;;;6.80;5.37;;;;;;;;;;5014327;28;20562;-66
2021/01/15 04:26:51;;;;;;;7.33;6.17;;;;;;;;;;5012775;28;20462;-66
2021/01/15 04:29:16;;;;;;;7.50;6.30;;;;;;;;;;5014054;28;20214;-66
2021/01/15 04:31:41;;;;;;;7.17;5.87;;;;;;;;;;5013922;28;20483;-65
2021/01/15 04:34:06;;;;;;;9.13;5.80;;;;;;;;;;5013472;28;20687;-65
2021/01/15 04:36:34;;;;;;;7.23;5.63;;;;;;;;;;5013892;28;20229;-65
2021/01/15 04:39:00;;;;;;;7.97;6.10;;;;;;;;;;5012476;28;20700;-65
2021/01/15 04:41:26;;;;;;;6.47;5.67;;;;;;;;;;5013861;28;20469;-66
2021/01/15 04:43:54;;;;;;;8.57;5.90;;;;;;;;;;5012732;28;20218;-65
2021/01/15 04:46:20;;;;;;;8.57;5.30;;;;;;;;;;5013847;28;20454;-65
2021/01/15 04:48:48;;;;;;;6.30;5.40;;;;;;;;;;5013728;28;20462;-66
2021/01/15 04:51:18;;;;;;;6.10;5.23;;;;;;;;;;5013417;28;20489;-66
2021/01/15 04:53:49;;;;;;;6.40;5.60;;;;;;;;;;5013983;28;20478;-65
2021/01/15 04:56:15;;;;;;;7.33;5.10;;;;;;;;;;5013127;28;20453;-65
2021/01/15 04:58:46;;;;;;;6.57;5.37;;;;;;;;;;5014296;28;20475;-65
2021/01/15 05:01:13;;;;;;;6.20;5.17;;;;;;;;;;5012786;28;20454;-65
2021/01/15 05:03:39;;;;;;;8.40;5.33;;;;;;;;;;5013977;28;20783;-65
2021/01/15 05:06:07;;;;;;;5.40;4.47;;;;;;;;;;5013031;28;20468;-65
2021/01/15 05:08:35;;;;;;;6.50;5.57;;;;;;;;;;5014041;28;20550;-65
2021/01/15 05:11:02;;;;;;;5.50;4.63;;;;;;;;;;5013736;28;20557;-64
2021/01/15 05:13:35;;;;;;;7.50;4.53;;;;;;;;;;5017912;28;20462;-65
2021/01/15 05:16:01;;;;;;;6.60;4.60;;;;;;;;;;5004303;28;20477;-65
2021/01/15 05:18:31;;;;;;;7.60;4.60;;;;;;;;;;5016784;28;20462;-65
2021/01/15 05:20:56;;;;;;;5.60;5.10;;;;;;;;;;5017687;28;20713;-65
2021/01/15 05:23:22;;;;;;;5.33;4.07;;;;;;;;;;5017697;28;20469;-66
2021/01/15 05:25:48;;;;;;;8.00;5.30;;;;;;;;;;5017957;28;20310;-65
2021/01/15 05:28:16;;;;;;;7.07;5.00;;;;;;;;;;5017250;28;20929;-65
2021/01/15 05:30:42;;;;;;;4.90;4.40;;;;;;;;;;5017833;28;20302;-65
2021/01/15 05:33:15;;;;;;;6.13;5.47;;;;;;;;;;5004174;28;20494;-64
2021/01/15 05:35:40;;;;;;;5.77;4.67;;;;;;;;;;5018199;28;20272;-65
2021/01/15 05:38:06;;;;;;;5.30;4.73;;;;;;;;;;5017299;28;20449;-65
2021/01/15 05:40:36;;;;;;;8.27;5.50;;;;;;;;;;5017537;28;20222;-65
2021/01/15 05:43:01;;;;;;;6.37;5.30;;;;;;;;;;5017153;28;20314;-65
2021/01/15 05:45:27;;;;;;;6.13;5.33;;;;;;;;;;5017968;28;20489;-65
2021/01/15 05:47:52;;;;;;;4.40;4.00;;;;;;;;;;5017905;28;20218;-65
2021/01/15 05:50:17;;;;;;;5.03;4.53;;;;;;;;;;5017683;28;20234;-65
2021/01/15 05:52:56;;;;;;;5.03;4.50;;;;;;;;;;5017817;28;20230;-64
2021/01/15 05:55:25;;;;;;;7.00;5.43;;;;;;;;;;5016994;28;20304;-65
2021/01/15 05:57:51;;;;;;;5.47;4.93;;;;;;;;;;5017608;28;20469;-65
2021/01/15 06:00:25;;;;;;;5.93;4.50;;;;;;;;;;5017175;28;20481;-65
2021/01/15 06:02:52;;;;;;;6.60;5.87;;;;;;;;;;5016309;28;20510;-65
2021/01/15 06:05:18;;;;;;;6.50;5.00;;;;;;;;;;5015896;28;20471;-65
2021/01/15 06:07:44;;;;;;;7.03;5.20;;;;;;;;;;5016005;28;20462;-65
2021/01/15 06:10:10;;;;;;;6.13;5.53;;;;;;;;;;5015751;28;20532;-65
2021/01/15 06:12:41;;;;;;;5.87;5.27;;;;;;;;;;5016832;28;20245;-64
2021/01/15 06:15:07;;;;;;;7.13;5.40;;;;;;;;;;5016340;28;20484;-64
2021/01/15 06:17:37;;;;;;;10.33;6.20;;;;;;;;;;5015761;28;20800;-66
2021/01/15 06:20:04;;;;;;;6.00;4.83;;;;;;;;;;5016372;28;20305;-65
2021/01/15 06:22:44;;;;;;;8.00;6.30;;;;;;;;;;5016197;28;20465;-65
2021/01/15 06:25:29;;;;;;;8.10;5.30;;;;;;;;;;5016377;28;20539;-65
2021/01/15 06:27:58;;;;;;;6.70;4.90;;;;;;;;;;5016741;28;20482;-65
2021/01/15 06:30:32;;;;;;;6.17;5.57;;;;;;;;;;5016080;28;20458;-65
2021/01/15 06:33:11;;;;;;;8.40;5.70;;;;;;;;;;5016596;28;20623;-65
2021/01/15 06:35:39;;;;;;;6.23;4.80;;;;;;;;;;5004068;28;20548;-65
2021/01/15 06:38:10;;;;;;;7.00;5.23;;;;;;;;;;5015657;28;21330;-64
2021/01/15 06:40:37;;;;;;;5.60;4.67;;;;;;;;;;5016367;28;20458;-64
2021/01/15 06:43:05;;;;;;;5.77;4.20;;;;;;;;;;5015947;28;20452;-64
2021/01/15 06:45:40;;;;;;;6.30;5.20;;;;;;;;;;5016109;28;20533;-64
2021/01/15 06:48:32;;;;;;;6.40;5.20;;;;;;;;;;5019377;28;20455;-65
2021/01/15 06:50:58;;;;;;;7.13;5.13;;;;;;;;;;5018116;28;20981;-66
2021/01/15 06:53:43;;;;;;;5.50;4.93;;;;;;;;;;5009424;28;20465;-65
2021/01/15 06:56:17;;;;;;;6.70;4.80;;;;;;;;;;5022761;28;20449;-65
2021/01/15 06:58:43;;;;;;;6.70;5.57;;;;;;;;;;5025344;28;20459;-65
2021/01/15 07:01:21;;;;;;;6.40;4.93;;;;;;;;;;5028810;28;20455;-65
2021/01/15 07:04:24;;;;;;;6.70;5.50;;;;;;;;;;5027684;28;20967;-66
2021/01/15 07:07:11;;;;;;;6.10;4.80;;;;;;;;;;5016843;28;20452;-65
2021/01/15 07:09:38;;;;;;;5.40;4.20;;;;;;;;;;5008206;28;20480;-66
2021/01/15 07:12:22;;;;;;;4.57;4.17;;;;;;;;;;5021905;28;20474;-66
2021/01/15 07:14:51;;;;;;;4.23;3.73;;;;;;;;;;5013007;28;20477;-66
2021/01/15 07:17:18;;;;;;;6.37;4.57;;;;;;;;;;5020798;28;20459;-66
2021/01/15 07:19:45;;;;;;;6.30;4.73;;;;;;;;;;5024486;28;20940;-65
2021/01/15 07:22:12;;;;;;;5.40;4.90;;;;;;;;;;5027343;28;20533;-66
2021/01/15 07:24:41;;;;;;;6.80;4.70;;;;;;;;;;5024483;28;20468;-66
2021/01/15 07:27:10;;;;;;;7.03;5.67;;;;;;;;;;5021120;28;20475;-67
2021/01/15 07:29:40;;;;;;;8.77;5.53;;;;;;;;;;5024620;28;20454;-66
2021/01/15 07:32:08;;;;;;;5.93;5.30;;;;;;;;;;5020597;28;22952;-65
2021/01/15 07:34:37;;;;;;;5.53;4.93;;;;;;;;;;5018962;28;20464;-66
2021/01/15 07:37:23;;;;;;;5.43;4.23;;;;;;;;;;5020720;28;20475;-65
2021/01/15 07:40:17;;;;;;;6.60;4.80;;;;;;;;;;5035132;28;20537;-65
2021/01/15 07:42:48;;;;;;;5.87;4.17;;;;;;;;;;5041541;28;20449;-67
2021/01/15 07:45:25;;;;;;;6.20;5.60;;;;;;;;;;5029165;28;20448;-66
2021/01/15 07:47:56;;;;;;;5.73;4.70;;;;;;;;;;5041021;28;20523;-66
2021/01/15 07:50:35;;;;;;;4.90;4.40;;;;;;;;;;5045161;28;20503;-66
2021/01/15 07:53:17;;;;;;;5.80;5.10;;;;;;;;;;5046952;28;20476;-66
2021/01/15 07:55:59;;;;;;;5.80;4.97;;;;;;;;;;5047744;28;20983;-66
2021/01/15 07:58:44;;;;;;;6.10;4.80;;;;;;;;;;5031929;28;20460;-66
2021/01/15 08:01:12;;;;;;;5.97;5.13;;;;;;;;;;5039741;28;20483;-66
2021/01/15 08:03:41;;;;;;;5.07;4.57;;;;;;;;;;5042311;28;20516;-65
2021/01/15 08:06:07;;;;;;;8.03;5.23;;;;;;;;;;5047554;28;20464;-66
2021/01/15 08:08:32;;;;;;;5.80;5.20;;;;;;;;;;5045765;28;20499;-65
2021/01/15 08:11:08;;;;;;;6.47;5.83;;;;;;;;;;5040740;28;20556;-65
2021/01/15 08:13:33;;;;;;;5.87;5.17;;;;;;;;;;5039065;28;20229;-65
2021/01/15 08:16:06;;;;;;;7.53;5.40;;;;;;;;;;5047079;28;20967;-65
2021/01/15 08:18:32;;;;;;;7.10;5.20;;;;;;;;;;5046869;28;20230;-65
2021/01/15 08:20:58;;;;;;;6.53;5.47;;;;;;;;;;5041662;28;20469;-66
2021/01/15 08:23:27;;;;;;;6.10;5.23;;;;;;;;;;5040096;28;20481;-65
2021/01/15 08:26:02;;;;;;;6.83;4.90;;;;;;;;;;5045974;28;20597;-66
2021/01/15 08:28:27;;;;;;;6.13;4.70;;;;;;;;;;5047454;28;20929;-66
2021/01/15 08:30:56;;;;;;;6.10;5.40;;;;;;;;;;5043254;28;20483;-66
2021/01/15 08:33:22;;;;;;;7.57;5.00;;;;;;;;;;5040034;28;20255;-66
2021/01/15 08:35:52;;;;;;;5.67;4.73;;;;;;;;;;5043682;28;20757;-66
2021/01/15 08:38:26;;;;;;;6.33;5.43;;;;;;;;;;5046222;28;20267;-67
2021/01/15 08:40:52;;;;;;;5.27;4.50;;;;;;;;;;5045088;28;20460;-67
2021/01/15 08:43:17;;;;;;;7.50;5.83;;;;;;;;;;5039493;28;20986;-66
2021/01/15 08:45:42;;;;;;;5.90;5.30;;;;;;;;;;5043259;28;20217;-66
2021/01/15 08:48:09;;;;;;;8.17;6.70;;;;;;;;;;5051311;28;20236;-65
2021/01/15 08:50:35;;;;;;;6.90;6.20;;;;;;;;;;5046996;28;20221;-66
2021/01/15 08:53:00;;;;;;;6.43;5.80;;;;;;;;;;5044014;28;20498;-66
2021/01/15 08:55:26;;;;;;;8.73;6.70;;;;;;;;;;5046944;28;20217;-66
2021/01/15 08:57:51;;;;;;;7.47;6.77;;;;;;;;;;5050044;28;20554;-66
2021/01/15 09:00:20;;;;;;;7.60;6.77;;;;;;;;;;5047561;28;20215;-66
2021/01/15 09:02:45;;;;;;;9.30;6.57;;;;;;;;;;5044003;28;20224;-67
2021/01/15 09:05:15;;;;;;;7.10;6.40;;;;;;;;;;5029248;28;20793;-66
2021/01/15 09:07:45;;;;;;;7.80;6.67;;;;;;;;;;5033188;28;20213;-66
2021/01/15 09:10:13;;;;;;;7.73;6.10;;;;;;;;;;5049053;28;20525;-66
2021/01/15 09:12:43;;;;;;;7.87;6.03;;;;;;;;;;5042398;28;20459;-65
2021/01/15 09:15:22;;;;;;;6.97;6.30;;;;;;;;;;5044838;28;20476;-66
2021/01/15 09:17:47;;;;;;;6.87;5.90;;;;;;;;;;5031852;28;21400;-67
2021/01/15 09:20:14;;;;;;;7.40;6.60;;;;;;;;;;5044676;28;20584;-65
2021/01/15 09:22:40;;;;;;;8.53;5.90;;;;;;;;;;5050113;28;20665;-66
2021/01/15 09:25:06;;;;;;;8.03;6.37;;;;;;;;;;5050393;28;20474;-66
2021/01/15 09:27:32;;;;;;;7.00;5.70;;;;;;;;;;5042277;28;20253;-65
2021/01/15 09:29:57;;;;;;;7.47;5.63;;;;;;;;;;5044257;28;20560;-66
2021/01/15 09:32:22;;;;;;;7.73;5.73;;;;;;;;;;5047262;28;20635;-66
2021/01/15 09:34:47;;;;;;;10.37;6.57;;;;;;;;;;5049680;28;20301;-68
2021/01/15 09:37:13;;;;;;;7.47;6.30;;;;;;;;;;5044457;28;20221;-67
2021/01/15 09:39:38;;;;;;;10.30;6.37;;;;;;;;;;5042875;28;20395;-66
2021/01/15 09:42:03;;;;;;;7.93;6.00;;;;;;;;;;5049146;28;20224;-65
2021/01/15 09:44:29;;;;;;;9.77;6.50;;;;;;;;;;5049398;28;20718;-66
2021/01/15 09:47:03;;;;;;;8.57;6.13;;;;;;;;;;5043187;28;20355;-66
2021/01/15 09:49:31;;;;;;;7.17;6.13;;;;;;;;;;5042163;28;20267;-65
2021/01/15 09:51:56;;;;;;;7.87;7.03;;;;;;;;;;5049689;28;20518;-66
2021/01/15 09:54:21;;;;;;;9.93;7.13;;;;;;;;;;5050210;28;20478;-67
2021/01/15 09:56:47;;;;;;;9.77;6.90;;;;;;;;;;5041677;28;20313;-66
2021/01/15 09:59:15;;;;;;;7.17;6.37;;;;;;;;;;5043669;28;20307;-68
2021/01/15 10:01:41;;;;;;;9.43;7.00;;;;;;;;;;5042757;28;20478;-67
2021/01/15 10:04:06;;;;;;;9.00;6.83;;;;;;;;;;5046351;28;20468;-66
2021/01/15 10:06:36;;;;;;;8.50;7.00;;;;;;;;;;5049238;28;20567;-66
2021/01/15 10:09:02;;;;;;;10.00;9.00;;;;;;;;;;5039998;28;20600;-67
2021/01/15 10:11:30;;;;;;;8.20;7.37;;;;;;;;;;5048853;28;20567;-65
2021/01/15 10:13:57;;;;;;;9.83;8.80;;;;;;;;;;5044275;28;20538;-65
2021/01/15 10:16:24;;;;;;;7.73;6.93;;;;;;;;;;5039336;28;20500;-67
2021/01/15 10:18:49;;;;;;;10.27;7.57;;;;;;;;;;5041173;28;20928;-66
2021/01/15 10:21:19;;;;;;;8.53;5.90;;;;;;;;;;5042355;28;20526;-65
2021/01/15 10:23:45;;;;;;;9.07;7.77;;;;;;;;;;5045735;28;20268;-65
2021/01/15 10:26:20;;;;;;;7.40;6.60;;;;;;;;;;5043443;28;20959;-65
2021/01/15 10:28:45;;;;;;;9.53;6.60;;;;;;;;;;5041069;28;20307;-67
2021/01/15 10:31:11;;;;;;;6.70;6.00;;;;;;;;;;5040041;28;20561;-64
2021/01/15 10:33:36;;;;;;;10.30;6.27;;;;;;;;;;5026637;28;20278;-64
2021/01/15 10:36:05;;;;;;;7.17;6.10;;;;;;;;;;5046659;28;20291;-66
2021/01/15 10:38:31;;;;;;;7.67;6.67;;;;;;;;;;5042905;28;20280;-67
2021/01/15 10:40:58;;;;;;;6.20;5.50;;;;;;;;;;5038038;28;20468;-66
2021/01/15 10:43:23;;;;;;;7.40;6.20;;;;;;;;;;5048759;28;20283;-68
2021/01/15 10:45:48;;;;;;;6.80;5.90;;;;;;;;;;5045376;28;20987;-66
2021/01/15 10:48:14;;;;;;;7.90;6.53;;;;;;;;;;5037663;28;20309;-67
2021/01/15 10:50:39;;;;;;;7.27;5.70;;;;;;;;;;5046892;28;20237;-66
2021/01/15 10:53:04;;;;;;;10.70;7.07;;;;;;;;;;5041925;28;20217;-65
2021/01/15 10:55:30;;;;;;;6.63;5.70;;;;;;;;;;5043792;28;20725;-66
2021/01/15 10:57:55;;;;;;;7.43;5.80;;;;;;;;;;5046847;28;20228;-65
2021/01/15 11:00:20;;;;;;;7.00;5.97;;;;;;;;;;5045323;28;20230;-66
2021/01/15 11:02:49;;;;;;;7.90;6.50;;;;;;;;;;5046022;28;20218;-66
2021/01/15 11:05:14;;;;;;;9.23;7.33;;;;;;;;;;5045249;28;20662;-66
2021/01/15 11:07:41;;;;;;;6.50;5.20;;;;;;;;;;5047163;28;20459;-66
2021/01/15 11:10:07;;;;;;;9.37;6.87;;;;;;;;;;5053432;28;20235;-66
2021/01/15 11:12:32;;;;;;;7.30;6.50;;;;;;;;;;5041393;28;20967;-65
2021/01/15 11:14:57;;;;;;;8.20;7.27;;;;;;;;;;5046330;28;20236;-66
2021/01/15 11:17:22;;;;;;;8.77;6.43;;;;;;;;;;5042691;28;20236;-67
2021/01/15 11:19:48;;;;;;;9.90;6.63;;;;;;;;;;5046647;28;20363;-66
2021/01/15 11:22:13;;;;;;;10.07;7.10;;;;;;;;;;5044686;28;20222;-66
2021/01/15 11:24:38;;;;;;;8.60;7.53;;;;;;;;;;5047096;28;20260;-66
2021/01/15 11:27:04;;;;;;;9.30;6.90;;;;;;;;;;5048705;28;20217;-67
2021/01/15 11:29:29;;;;;;;9.17;6.97;;;;;;;;;;5044215;28;20220;-67
2021/01/15 11:31:54;;;;;;;7.97;6.90;;;;;;;;;;5041376;28;20592;-67
2021/01/15 11:34:21;;;;;;;7.80;6.00;;;;;;;;;;5046515;28;20642;-67
2021/01/15 11:36:49;;;;;;;6.93;6.23;;;;;;;;;;5050714;28;20268;-66
2021/01/15 11:39:14;;;;;;;7.70;6.40;;;;;;;;;;5035210;28;20493;-65
2021/01/15 11:41:40;;;;;;;9.50;6.57;;;;;;;;;;5048921;28;20479;-66
2021/01/15 11:44:09;;;;;;;7.27;6.17;;;;;;;;;;5045808;28;20293;-65
2021/01/15 11:46:36;;;;;;;7.30;5.27;;;;;;;;;;5043156;28;20219;-66
2021/01/15 11:49:01;;;;;;;6.77;5.90;;;;;;;;;;5044034;28;20470;-66
2021/01/15 11:51:28;;;;;;;7.97;6.53;;;;;;;;;;5051548;28;20482;-67
2021/01/15 11:53:53;;;;;;;7.60;6.20;;;;;;;;;;5038412;28;20291;-64
2021/01/15 11:56:18;;;;;;;11.50;6.97;;;;;;;;;;5041530;28;20949;-64
2021/01/15 11:58:44;;;;;;;11.80;8.10;;;;;;;;;;5044591;28;20252;-66
2021/01/15 12:01:09;;;;;;;9.33;7.33;;;;;;;;;;5049019;28;20226;-65
2021/01/15 12:03:35;;;;;;;9.10;7.60;;;;;;;;;;5041468;28;20228;-65
2021/01/15 12:06:00;;;;;;;9.93;7.60;;;;;;;;;;5034835;28;20391;-65
2021/01/15 12:08:26;;;;;;;11.13;6.70;;;;;;;;;;5067753;28;20570;-65
2021/01/15 12:10:56;;;;;;;7.77;7.00;;;;;;;;;;5035099;28;20756;-64
2021/01/15 12:13:22;;;;;;;9.57;7.33;;;;;;;;;;5035228;28;20221;-64
2021/01/15 12:15:48;;;;;;;8.23;6.90;;;;;;;;;;5017314;28;20478;-65
2021/01/15 12:18:14;;;;;;;8.10;6.43;;;;;;;;;;5034218;28;21269;-65
2021/01/15 12:20:42;;;;;;;8.20;6.13;;;;;;;;;;5033623;28;20468;-65
2021/01/15 12:23:07;;;;;;;6.60;5.43;;;;;;;;;;5032345;28;20277;-65
2021/01/15 12:25:35;;;;;;;7.53;6.13;;;;;;;;;;5033694;28;20536;-65
2021/01/15 12:28:01;;;;;;;6.93;6.03;;;;;;;;;;5032911;28;20213;-65
2021/01/15 12:30:26;;;;;;;7.53;5.53;;;;;;;;;;5033043;28;20464;-65
2021/01/15 12:32:51;;;;;;;8.77;6.00;;;;;;;;;;5032604;28;20285;-65
2021/01/15 12:35:18;;;;;;;7.17;5.80;;;;;;;;;;5034918;28;20553;-65
2021/01/15 12:37:43;;;;;;;6.73;6.13;;;;;;;;;;5035107;28;20232;-65
2021/01/15 12:40:09;;;;;;;7.43;6.00;;;;;;;;;;5034825;28;20452;-65
2021/01/15 12:42:34;;;;;;;9.00;6.63;;;;;;;;;;5035481;28;20223;-64
2021/01/15 12:44:59;;;;;;;6.67;5.97;;;;;;;;;;5044885;28;20604;-65
2021/01/15 12:47:25;;;;;;;8.73;6.03;;;;;;;;;;5048530;28;20507;-65
2021/01/15 12:49:50;;;;;;;7.60;6.00;;;;;;;;;;5036120;28;20228;-64
2021/01/15 12:52:19;;;;;;;6.60;5.90;;;;;;;;;;5034589;28;20354;-65
2021/01/15 12:54:44;;;;;;;13.00;6.13;;;;;;;;;;5036167;28;20210;-65
2021/01/15 12:57:09;;;;;;;8.60;5.77;;;;;;;;;;5036042;28;20457;-65
2021/01/15 12:59:34;;;;;;;6.80;5.40;;;;;;;;;;5035994;28;20663;-64
2021/01/15 13:02:00;;;;;;;6.30;5.20;;;;;;;;;;5035285;28;20220;-65
2021/01/15 13:04:29;;;;;;;6.03;4.70;;;;;;;;;;5036502;28;20642;-64
2021/01/15 13:06:54;;;;;;;6.40;5.50;;;;;;;;;;5035773;28;20237;-64
2021/01/15 13:09:20;;;;;;;7.10;5.37;;;;;;;;;;5035799;28;20459;-65
2021/01/15 13:11:45;;;;;;;8.23;5.87;;;;;;;;;;5035482;28;20801;-66
2021/01/15 13:14:10;;;;;;;5.83;4.90;;;;;;;;;;5034187;28;20223;-65
2021/01/15 13:16:36;;;;;;;5.87;5.27;;;;;;;;;;5034854;28;20225;-64
2021/01/15 13:19:02;;;;;;;6.33;5.00;;;;;;;;;;5034814;28;20232;-64
2021/01/15 13:21:27;;;;;;;7.60;5.50;;;;;;;;;;5034580;28;20514;-64
2021/01/15 13:23:52;;;;;;;5.73;5.10;;;;;;;;;;5034583;28;20218;-65
2021/01/15 13:26:18;;;;;;;8.00;5.13;;;;;;;;;;5046621;28;20217;-66
2021/01/15 13:28:43;;;;;;;5.70;4.53;;;;;;;;;;5046214;28;20272;-65
2021/01/15 13:31:11;;;;;;;6.47;5.47;;;;;;;;;;5034495;28;20224;-65
2021/01/15 13:33:37;;;;;;;7.37;6.20;;;;;;;;;;5038063;28;20292;-65
2021/01/15 13:36:05;;;;;;;12.87;5.40;;;;;;;;;;5038611;28;20540;-64
2021/01/15 13:38:30;;;;;;;5.07;4.50;;;;;;;;;;5037732;28;20659;-64
2021/01/15 13:40:56;;;;;;;7.17;5.57;;;;;;;;;;5039199;28;20456;-64
2021/01/15 13:43:21;;;;;;;7.50;5.07;;;;;;;;;;5038614;28;20598;-64
2021/01/15 13:45:46;;;;;;;5.63;4.97;;;;;;;;;;5038364;28;20218;-65
2021/01/15 13:48:12;;;;;;;6.50;5.30;;;;;;;;;;5038697;28;20225;-65
2021/01/15 13:50:58;;;;;;;6.90;5.50;;;;;;;;;;5039086;28;20222;-64
2021/01/15 13:53:24;;;;;;;6.53;5.23;;;;;;;;;;5038467;28;20220;-64
2021/01/15 13:55:53;;;;;;;5.40;4.90;;;;;;;;;;5042125;28;20505;-65
2021/01/15 13:58:19;;;;;;;6.70;5.93;;;;;;;;;;5056450;28;20468;-64
2021/01/15 14:00:44;;;;;;;5.20;4.70;;;;;;;;;;5038537;28;20469;-64
2021/01/15 14:03:10;;;;;;;6.00;5.07;;;;;;;;;;5037977;28;20464;-64
2021/01/15 14:05:39;;;;;;;6.20;4.70;;;;;;;;;;5020636;28;20638;-65
2021/01/15 14:08:05;;;;;;;5.10;4.60;;;;;;;;;;5023095;28;20233;-64
2021/01/15 14:10:31;;;;;;;7.83;5.00;;;;;;;;;;5058091;28;20534;-64
2021/01/15 14:12:57;;;;;;;5.77;5.13;;;;;;;;;;5057997;28;20551;-64
2021/01/15 14:15:22;;;;;;;5.40;4.90;;;;;;;;;;5068018;28;20500;-65
2021/01/15 14:17:47;;;;;;;6.30;5.40;;;;;;;;;;5069701;28;20304;-64
2021/01/15 14:20:13;;;;;;;5.60;4.83;;;;;;;;;;5057475;28;20316;-64
2021/01/15 14:22:38;;;;;;;5.27;4.43;;;;;;;;;;5049846;28;20213;-64
2021/01/15 14:25:07;;;;;;;6.87;5.20;;;;;;;;;;5037841;28;20222;-64
2021/01/15 14:27:32;;;;;;;7.93;4.90;;;;;;;;;;5037378;28;20213;-64
2021/01/15 14:29:57;;;;;;;6.23;5.63;;;;;;;;;;5038107;28;20481;-64
2021/01/15 14:32:24;;;;;;;5.80;5.17;;;;;;;;;;5036466;28;20317;-63
2021/01/15 14:34:50;;;;;;;7.50;6.17;;;;;;;;;;5037716;28;20523;-64
2021/01/15 14:37:18;;;;;;;8.20;4.83;;;;;;;;;;5037339;28;20793;-64
2021/01/15 14:39:44;;;;;;;5.87;4.73;;;;;;;;;;5037535;28;20829;-64
2021/01/15 14:42:16;;;;;;;6.20;5.60;;;;;;;;;;5037164;28;20456;-64
2021/01/15 14:44:41;;;;;;;7.27;5.47;;;;;;;;;;5037232;28;20658;-65
2021/01/15 14:47:06;;;;;;;5.77;5.17;;;;;;;;;;5037757;28;20538;-64
2021/01/15 14:49:32;;;;;;;7.73;5.87;;;;;;;;;;5037255;28;20633;-64